Latest Coastal Weather Observations for Cerberus

IDV60701

Issued at 9:41 pm EST Monday 6 July 2015 (issued every 10 minutes, with the page automatically refreshed every 10 minutes)

About coastal observations | Map of coastal stations | Coastal observations for VIC | Marine services | Other Formats
Station Details ID: 086361 Name: CERBERUS Lat: -38.36 Lon: 145.18 Height: 12.69 m
Data from the previous 72 hours. | See also: Recent months at Cerberus
Date/Time
EST
Temp

°C
Wind Pressure Rain
since 9am
mm
Weather Cloud Vis
km
Sea
Height
m
Swell
Dir
 
Speed
knots
Gust
knots
hPa Trend Height
m
Period
s
Dir
06/09:30pm 9.3 NNW 5 11 1017.8 - 0.0 - - - - - - -
06/09:00pm 9.4 NNW 7 12 1017.4 - 0.0 - - - - - - -
06/08:30pm 9.6 NNW 5 12 1017.2 - 0.0 - - - - - - -
06/08:00pm 9.7 NNW 6 11 1017.1 - 0.0 - - - - - - -
06/07:30pm 9.8 NNW 9 14 1016.8 - 0.0 - - - - - - -
06/07:00pm 9.8 NNW 8 14 1016.7 - 0.0 - - - - - - -
06/06:30pm 9.7 NNW 8 16 1016.3 - 0.0 - - - - - - -
06/06:00pm 9.5 NNW 5 10 1016.0 - 0.0 - - - - - - -
06/05:30pm 10.0 NNW 3 10 1015.7 - 0.0 - - - - - - -
06/05:00pm 10.5 NNW 4 9 1015.3 - 0.0 - - - - - - -
06/04:30pm 10.8 NNW 4 11 1015.1 - 0.0 - - - - - - -
06/04:00pm 11.1 NNW 5 10 1015.0 - 0.0 - - - - - - -
06/03:30pm 11.2 NNW 9 14 1014.7 - 0.0 - - - - - - -
06/03:00pm 11.9 NNW 7 16 1014.4 - 0.0 - - - - - - -
06/02:30pm 11.1 NNW 10 15 1014.3 - 0.0 - - - - - - -
06/02:00pm 11.1 NNW 9 17 1014.4 - 0.0 - - - - - - -
06/01:30pm 11.3 NNW 9 16 1014.5 - 0.0 - - - - - - -
06/01:00pm 10.9 NNW 7 18 1014.6 - 0.0 - - - - - - -
06/12:30pm 10.5 NNW 5 14 1014.9 - 0.0 - - - - - - -
06/12:00pm 10.2 NNW 7 19 1015.4 - 0.0 - - - - - - -
06/11:30am 10.0 NNW 7 15 1015.6 - 0.0 - - - - - - -
06/11:00am 9.8 NNW 8 14 1015.7 - 0.0 - - - - - - -
06/10:30am 9.7 NNW 7 14 1015.8 - 0.0 - - - - - - -
06/10:00am 9.6 NNW 6 14 1015.8 - 0.0 - - - - - - -
06/09:30am 9.2 NNW 5 15 1015.8 - 0.0 - - - - - - -
06/09:00am 8.9 NNW 7 13 1015.7 - 0.0 - - - - - - -
06/08:30am 9.0 NNW 4 11 1015.7 - 0.0 - - - - - - -
06/08:00am 8.7 NNW 6 12 1015.4 - 0.0 - - - - - - -
06/07:30am 9.4 NNW 7 17 1015.4 - 0.0 - - - - - - -
06/07:00am 9.6 NNW 6 13 1015.2 - 0.0 - - - - - - -
06/06:30am 9.7 NNW 7 14 1015.1 - 0.0 - - - - - - -
06/06:00am 9.7 NNW 6 15 1015.0 - 0.0 - - - - - - -
06/05:30am 9.7 NNW 6 11 1015.2 - 0.0 - - - - - - -
06/05:00am 9.8 NNW 8 13 1015.2 - 0.0 - - - - - - -
06/04:30am 9.8 NNW 11 22 1015.1 - 0.0 - - - - - - -
06/04:00am 10.1 NNW 12 20 1014.9 - 0.0 - - - - - - -
06/03:30am 10.0 NNW 12 23 1015.2 - 0.0 - - - - - - -
06/03:00am 10.1 NNW 10 18 1015.3 - 0.0 - - - - - - -
06/02:30am 10.3 NNW 10 17 1015.6 - 0.0 - - - - - - -
06/02:00am 10.4 NNW 9 15 1015.7 - 0.0 - - - - - - -
06/01:30am 10.4 NNW 12 22 1015.8 - 0.0 - - - - - - -
06/01:00am 10.5 NNW 10 21 1016.0 - 0.0 - - - - - - -
06/12:30am 10.6 NNW 9 16 1016.2 - 0.0 - - - - - - -
06/12:00am 10.5 NNW 11 20 1016.2 - 0.0 - - - - - - -
 
Date/Time
EST
Temp

°C
Wind Pressure Rain
since 9am
mm
Weather Cloud Vis
km
Sea
Height
m
Swell
Dir
 
Speed
knots
Gust
knots
hPa Trend Height
m
Period
s
Dir
05/11:30pm 10.6 NNW 10 19 1016.3 - 0.0 - - - - - - -
05/11:00pm 10.6 N 7 16 1016.5 - 0.0 - - - - - - -
05/10:30pm 10.9 NNW 9 17 1016.5 - 0.0 - - - - - - -
05/10:00pm 11.0 NNW 9 17 1016.8 - 0.0 - - - - - - -
05/09:30pm 11.1 NNW 10 17 1017.0 - 0.0 - - - - - - -
05/09:00pm 11.0 NNW 11 21 1016.7 - 0.0 - - - - - - -
05/08:30pm 10.9 NNW 11 19 1016.8 - 0.0 - - - - - - -
05/08:00pm 11.1 NNW 12 22 1016.9 - 0.0 - - - - - - -
05/07:30pm 11.3 NNW 13 25 1016.8 - 0.0 - - - - - - -
05/07:00pm 11.4 NNW 12 19 1016.7 - 0.0 - - - - - - -
05/06:30pm 11.7 NNW 11 20 1016.7 - 0.0 - - - - - - -
05/06:00pm 11.7 NNW 8 16 1016.8 - 0.0 - - - - - - -
05/05:30pm 11.8 NNW 9 15 1016.7 - 0.0 - - - - - - -
05/05:00pm 12.0 NNW 6 14 1016.8 - 0.0 - - - - - - -
05/04:30pm 12.9 NNW 7 16 1016.6 - 0.0 - - - - - - -
05/04:00pm 13.8 NNW 9 15 1016.5 - 0.0 - - - - - - -
05/03:30pm 14.7 NNW 9 17 1016.6 - 0.0 - - - - - - -
05/03:00pm 14.9 NNW 7 15 1016.6 - 0.0 - - - - - - -
05/02:30pm 13.7 NNW 8 14 1016.9 - 0.0 - - - - - - -
05/02:00pm 13.8 NNW 8 12 1017.1 - 0.0 - - - - - - -
05/01:30pm 13.7 NW 9 16 1017.4 - 0.0 - - - - - - -
05/01:00pm 13.7 NNW 9 17 1017.5 - 0.0 - - - - - - -
05/12:30pm 13.5 NNW 7 15 1018.0 - 0.0 - - - - - - -
05/12:00pm 12.9 NNW 9 16 1018.5 - 0.0 - - - - - - -
05/11:30am 12.7 NNW 5 11 1018.9 - 0.0 - - - - - - -
05/11:00am 12.1 NNW 4 12 1019.5 - 0.0 - - - - - - -
05/10:30am 11.5 NNW 6 13 1019.4 - 0.0 - - - - - - -
05/10:00am 11.1 NNW 8 15 1019.5 - 0.0 - - - - - - -
05/09:30am 10.9 NNW 8 16 1019.5 - 0.0 - - - - - - -
05/09:00am 10.3 N 6 12 1019.5 - 0.8 - - - - - - -
05/08:30am 9.7 NNW 7 9 1019.5 - 0.8 - - - - - - -
05/08:00am 9.4 N 6 13 1019.4 - 0.8 - - - - - - -
05/07:30am 9.2 N 6 13 1019.3 - 0.8 - - - - - - -
05/07:00am 9.3 N 6 11 1019.3 - 0.8 - - - - - - -
05/06:30am 9.3 NNW 3 8 1019.4 - 0.8 - - - - - - -
05/06:00am 9.5 N 2 9 1019.2 - 0.8 - - - - - - -
05/05:30am 9.7 N 1 8 1019.1 - 0.8 - - - - - - -
05/05:00am 9.9 NNW 8 13 1018.9 - 0.8 - - - - - - -
05/04:30am 9.7 N 7 12 1018.8 - 0.8 - - - - - - -
05/04:00am 9.6 NNW 7 13 1018.9 - 0.8 - - - - - - -
05/03:30am 9.5 N 6 12 1019.1 - 0.8 - - - - - - -
05/03:00am 9.7 N 8 14 1019.5 - 0.8 - - - - - - -
05/02:30am 9.9 NNW 6 11 1019.7 - 0.8 - - - - - - -
05/02:00am 10.1 NNW 8 14 1019.9 - 0.8 - - - - - - -
05/01:30am 10.3 N 8 14 1019.7 - 0.8 - - - - - - -
05/01:00am 10.4 NNW 8 17 1020.0 - 0.8 - - - - - - -
05/12:30am 10.2 NNW 7 13 1020.2 - 0.8 - - - - - - -
05/12:00am 10.3 NNW 8 15 1020.1 - 0.8 - - - - - - -
 
Date/Time
EST
Temp

°C
Wind Pressure Rain
since 9am
mm
Weather Cloud Vis
km
Sea
Height
m
Swell
Dir
 
Speed
knots
Gust
knots
hPa Trend Height
m
Period
s
Dir
04/11:30pm 10.3 NNW 10 15 1020.1 - 0.8 - - - - - - -
04/11:00pm 10.3 NNW 8 14 1020.3 - 0.8 - - - - - - -
04/10:30pm 10.1 NNW 8 14 1020.3 - 0.8 - - - - - - -
04/10:00pm 9.8 NNW 6 12 1020.6 - 0.8 - - - - - - -
04/09:30pm 9.9 NNW 5 10 1020.8 - 0.8 - - - - - - -
04/09:00pm 9.7 NNW 3 11 1020.9 - 0.8 - - - - - - -
04/08:30pm 9.8 NNW 8 13 1020.9 - 0.8 - - - - - - -
04/08:00pm 9.9 NNW 8 13 1020.9 - 0.8 - - - - - - -
04/07:30pm 9.6 NNW 6 13 1020.9 - 0.8 - - - - - - -
04/07:00pm 9.5 NNW 6 11 1020.7 - 0.8 - - - - - - -
04/06:30pm 9.4 NNW 8 13 1020.6 - 0.8 - - - - - - -
04/06:00pm 9.2 NNW 5 11 1020.6 - 0.8 - - - - - - -
04/05:30pm 9.2 NNW 5 10 1020.3 - 0.8 - - - - - - -
04/05:00pm 9.0 NNW 7 11 1020.3 - 0.8 - - - - - - -
04/04:30pm 8.9 NNW 6 11 1020.4 - 0.8 - - - - - - -
04/04:00pm 9.3 NNW 7 12 1020.3 - 0.6 - - - - - - -
04/03:30pm 9.7 NNW 7 13 1020.3 - 0.6 - - - - - - -
04/03:00pm 9.6 NNW 6 10 1020.2 - 0.6 - - - - - - -
04/02:30pm 9.3 NNW 9 15 1020.0 - 0.6 - - - - - - -
04/02:00pm 9.4 NNW 10 15 1019.9 - 0.6 - - - - - - -
04/01:30pm 9.8 NNW 8 17 1020.3 - 0.6 - - - - - - -
04/01:00pm 10.1 NNW 8 14 1020.4 - 0.6 - - - - - - -
04/12:30pm 9.6 NNW 7 13 1020.7 - 0.6 - - - - - - -
04/12:00pm 9.2 NNW 10 15 1020.9 - 0.6 - - - - - - -
04/11:30am 9.1 NNW 9 17 1021.4 - 0.6 - - - - - - -
04/11:00am 8.8 NNW 10 17 1021.7 - 0.6 - - - - - - -
04/10:30am 8.6 NNW 8 14 1021.8 - 0.6 - - - - - - -
04/10:00am 8.3 NNW 8 15 1021.7 - 0.6 - - - - - - -
04/09:30am 7.6 NNW 7 15 1021.7 - 0.6 - - - - - - -
04/09:00am 8.2 NW 9 18 1021.3 - 0.2 Recent precip. - - - - - -
04/08:30am 8.4 NNW 8 15 1021.3 - 0.0 - - - - - - -
04/08:00am 9.0 NNW 8 20 1021.1 - 0.0 - - - - - - -
04/07:30am 9.2 NNW 8 15 1020.9 - 0.0 - - - - - - -
04/07:00am 9.3 NNW 6 12 1021.0 - 0.0 - - - - - - -
04/06:30am 9.4 NNW 7 13 1020.9 - 0.0 - - - - - - -
04/06:00am 9.1 NNW 9 18 1020.8 - 0.0 - - - - - - -
04/05:30am 8.8 NNW 6 11 1021.0 - 0.0 - - - - - - -
04/05:00am 8.7 NNW 5 10 1021.0 - 0.0 - - - - - - -
04/04:30am 9.3 NNW 7 14 1021.2 - 0.0 - - - - - - -
04/04:00am 9.4 NW 4 8 1021.4 - 0.0 - - - - - - -
04/03:30am 9.3 NNW 6 11 1021.5 - 0.0 - - - - - - -
04/03:00am 9.2 NNW 5 10 1021.9 - 0.0 - - - - - - -
04/02:30am 9.2 NNW 7 11 1022.2 - 0.0 - - - - - - -
04/02:00am 9.0 NNW 5 11 1022.4 - 0.0 - - - - - - -
04/01:30am 8.9 NNW 7 11 1022.3 - 0.0 - - - - - - -
04/01:00am 9.0 NW 8 13 1022.8 - 0.0 - - - - - - -
04/12:30am 9.1 NW 7 13 1023.1 - 0.0 - - - - - - -
04/12:00am 8.9 NNW 5 11 1023.4 - 0.0 - - - - - - -
 
Date/Time
EST
Temp

°C
Wind Pressure Rain
since 9am
mm
Weather Cloud Vis
km
Sea
Height
m
Swell
Dir
 
Speed
knots
Gust
knots
hPa Trend Height
m
Period
s
Dir
03/11:30pm 8.9 NNW 4 9 1023.4 - 0.0 - - - - - - -
03/11:00pm 8.8 NW 3 9 1023.7 - 0.0 - - - - - - -
03/10:30pm 8.9 NNW 3 9 1023.8 - 0.0 - - - - - - -
03/10:00pm 9.1 NNW 5 11 1024.1 - 0.0 - - - - - - -

Other Formats:

Comma delimited format used in spreadsheet applications
http://www.bom.gov.au/fwo/IDV60701/IDV60701.94898.axf

JavaScript Object Notation format (JSON) in row-major order
http://www.bom.gov.au/fwo/IDV60701/IDV60701.94898.json